createdAt,value
2022-11-30T00:01:30.620Z,8.82
2022-11-30T00:03:58.492Z,8.82
2022-11-30T00:06:26.085Z,8.85
2022-11-30T00:08:58.327Z,8.76
2022-11-30T00:11:28.843Z,8.68
2022-11-30T00:13:56.835Z,8.64
2022-11-30T00:16:24.401Z,8.81
2022-11-30T00:18:52.098Z,8.41
2022-11-30T00:21:20.165Z,8.64
2022-11-30T00:23:48.616Z,8.90
2022-11-30T00:26:18.835Z,8.64
2022-11-30T00:28:47.556Z,8.46
2022-11-30T00:31:18.111Z,8.37
2022-11-30T00:33:46.228Z,8.49
2022-11-30T00:36:22.727Z,8.54
2022-11-30T00:38:52.733Z,8.62
2022-11-30T00:41:21.239Z,8.81
2022-11-30T00:43:49.105Z,8.59
2022-11-30T00:46:16.779Z,8.81
2022-11-30T00:48:44.443Z,8.47
2022-11-30T00:51:12.986Z,8.62
2022-11-30T00:53:41.580Z,8.92
2022-11-30T00:56:10.394Z,8.84
2022-11-30T00:58:37.861Z,8.46
2022-11-30T01:01:06.730Z,8.19
2022-11-30T01:03:35.064Z,8.55
2022-11-30T01:06:08.482Z,8.59
2022-11-30T01:08:36.587Z,8.42
2022-11-30T01:11:24.130Z,8.27
2022-11-30T01:13:52.938Z,8.46
2022-11-30T01:16:31.467Z,8.32
2022-11-30T01:18:59.293Z,8.83
2022-11-30T01:21:29.278Z,8.65
2022-11-30T01:23:57.380Z,8.49
2022-11-30T01:26:26.001Z,8.46
2022-11-30T01:28:55.554Z,8.45
2022-11-30T01:31:25.241Z,8.64
2022-11-30T01:33:55.351Z,8.49
2022-11-30T01:36:27.456Z,8.46
2022-11-30T01:38:57.708Z,8.20
2022-11-30T01:41:31.542Z,8.21
2022-11-30T01:44:20.316Z,8.42
2022-11-30T01:46:59.864Z,8.52
2022-11-30T01:49:42.658Z,8.27
2022-11-30T01:52:14.790Z,8.14
2022-11-30T01:54:52.192Z,8.46
2022-11-30T01:57:31.005Z,8.23
2022-11-30T02:00:02.332Z,8.19
2022-11-30T02:03:03.388Z,8.25
2022-11-30T02:05:34.954Z,8.28
2022-11-30T02:08:02.864Z,8.30
2022-11-30T02:10:34.987Z,8.41
2022-11-30T02:13:39.937Z,8.24
2022-11-30T02:16:18.865Z,8.30
2022-11-30T02:19:11.871Z,8.35
2022-11-30T02:22:34.151Z,8.49
2022-11-30T02:25:33.203Z,8.54
2022-11-30T02:28:59.634Z,8.26
2022-11-30T02:31:43.783Z,8.36
2022-11-30T02:34:15.984Z,8.34
2022-11-30T02:36:46.547Z,8.36
2022-11-30T02:39:14.117Z,8.75
2022-11-30T02:41:42.326Z,8.51
2022-11-30T02:44:12.250Z,8.39
2022-11-30T02:46:53.378Z,8.51
2022-11-30T02:49:34.396Z,8.34
2022-11-30T02:52:03.436Z,8.49
2022-11-30T02:54:30.946Z,8.54
2022-11-30T02:56:58.853Z,8.59
2022-11-30T02:59:26.443Z,8.45
2022-11-30T03:01:53.953Z,8.61
2022-11-30T03:04:22.770Z,8.52
2022-11-30T03:06:50.370Z,8.49
2022-11-30T03:09:18.005Z,8.45
2022-11-30T03:11:45.588Z,8.25
2022-11-30T03:14:13.299Z,8.44
2022-11-30T03:16:40.987Z,8.53
2022-11-30T03:19:08.650Z,8.44
2022-11-30T03:21:36.273Z,8.46
2022-11-30T03:24:03.890Z,8.58
2022-11-30T03:26:31.673Z,8.60
2022-11-30T03:28:59.176Z,8.59
2022-11-30T03:31:26.770Z,8.48
2022-11-30T03:33:54.440Z,8.41
2022-11-30T03:36:21.919Z,8.44
2022-11-30T03:38:49.495Z,8.37
2022-11-30T03:41:18.928Z,8.35
2022-11-30T03:43:47.611Z,8.46
2022-11-30T03:46:15.528Z,8.40
2022-11-30T03:48:45.153Z,8.41
2022-11-30T03:51:14.256Z,8.58
2022-11-30T03:53:42.473Z,8.63
2022-11-30T03:56:11.431Z,8.72
2022-11-30T03:58:39.732Z,8.65
2022-11-30T04:01:13.704Z,8.56
2022-11-30T04:03:42.413Z,8.59
2022-11-30T04:06:12.318Z,8.87
2022-11-30T04:08:40.592Z,8.78
2022-11-30T04:11:09.819Z,8.62
2022-11-30T04:13:39.064Z,8.64
2022-11-30T04:16:07.932Z,8.44
2022-11-30T04:18:37.726Z,8.35
2022-11-30T04:21:07.358Z,8.41
2022-11-30T04:23:40.581Z,8.54
2022-11-30T04:26:12.722Z,8.52
2022-11-30T04:28:40.894Z,8.49
2022-11-30T04:31:09.494Z,8.42
2022-11-30T04:33:37.440Z,8.41
2022-11-30T04:36:07.227Z,8.37
2022-11-30T04:38:36.159Z,8.42
2022-11-30T04:41:08.913Z,8.54
2022-11-30T04:43:37.082Z,8.41
2022-11-30T04:46:06.265Z,8.40
2022-11-30T04:48:34.251Z,8.40
2022-11-30T04:51:06.149Z,8.48
2022-11-30T04:53:35.996Z,8.45
2022-11-30T04:56:08.857Z,8.45
2022-11-30T04:58:37.033Z,8.46
2022-11-30T05:01:04.586Z,8.37
2022-11-30T05:03:32.064Z,8.47
2022-11-30T05:05:59.590Z,8.46
2022-11-30T05:08:27.166Z,8.46
2022-11-30T05:10:57.553Z,8.46
2022-11-30T05:13:26.417Z,8.51
2022-11-30T05:15:54.312Z,8.46
2022-11-30T05:18:22.305Z,8.46
2022-11-30T05:20:51.789Z,8.50
2022-11-30T05:23:20.548Z,8.49
2022-11-30T05:25:48.854Z,8.51
2022-11-30T05:28:17.340Z,8.54
2022-11-30T05:30:45.433Z,8.59
2022-11-30T05:33:13.335Z,8.61
2022-11-30T05:35:41.072Z,8.66
2022-11-30T05:38:08.574Z,8.58
2022-11-30T05:40:36.665Z,8.62
2022-11-30T05:43:06.088Z,8.62
2022-11-30T05:45:33.710Z,8.58
2022-11-30T05:48:01.185Z,8.61
2022-11-30T05:50:28.959Z,8.71
2022-11-30T05:52:56.976Z,8.80
2022-11-30T05:55:26.224Z,8.77
2022-11-30T05:57:54.205Z,8.75
2022-11-30T06:00:22.687Z,8.73
2022-11-30T06:02:56.899Z,8.78
2022-11-30T06:05:25.263Z,8.76
2022-11-30T06:07:52.935Z,8.87
2022-11-30T06:10:20.871Z,8.97
2022-11-30T06:12:48.960Z,9.19
2022-11-30T06:15:16.579Z,9.12
2022-11-30T06:17:44.072Z,8.95
2022-11-30T06:20:12.095Z,8.85
2022-11-30T06:22:39.576Z,8.88
2022-11-30T06:25:07.373Z,8.67
2022-11-30T06:27:34.904Z,8.71
2022-11-30T06:30:04.092Z,8.75
2022-11-30T06:32:31.655Z,8.80
2022-11-30T06:37:40.805Z,8.71
2022-11-30T06:40:11.197Z,8.67
2022-11-30T06:42:41.682Z,8.71
2022-11-30T06:45:10.625Z,8.75
2022-11-30T06:47:38.318Z,8.76
2022-11-30T06:50:08.273Z,8.74
2022-11-30T06:52:35.963Z,8.71
2022-11-30T06:55:03.904Z,8.87
2022-11-30T06:57:32.192Z,8.95
2022-11-30T06:59:59.698Z,8.91
2022-11-30T07:02:27.259Z,9.04
2022-11-30T07:04:54.962Z,9.13
2022-11-30T07:07:22.661Z,9.14
2022-11-30T07:09:52.143Z,9.16
2022-11-30T07:12:19.698Z,9.19
2022-11-30T07:14:47.614Z,9.17
2022-11-30T07:17:15.285Z,9.14
2022-11-30T07:19:42.846Z,9.12
2022-11-30T07:22:10.448Z,9.07
2022-11-30T07:24:56.682Z,9.07
2022-11-30T07:27:24.425Z,9.10
2022-11-30T07:29:52.644Z,9.12
2022-11-30T07:32:20.700Z,9.07
2022-11-30T07:34:48.675Z,9.09
2022-11-30T07:37:16.301Z,9.03
2022-11-30T07:39:47.373Z,9.02
2022-11-30T07:42:14.997Z,9.43
2022-11-30T07:44:42.885Z,9.49
2022-11-30T07:47:10.632Z,9.46
2022-11-30T07:49:39.874Z,9.25
2022-11-30T07:52:08.346Z,9.14
2022-11-30T07:54:36.031Z,9.11
2022-11-30T07:57:03.611Z,9.19
2022-11-30T07:59:31.148Z,9.29
2022-11-30T08:01:58.835Z,9.25
2022-11-30T08:04:26.650Z,9.20
2022-11-30T08:06:55.412Z,9.31
2022-11-30T08:09:23.019Z,9.33
2022-11-30T08:11:50.705Z,9.41
2022-11-30T08:14:18.262Z,9.32
2022-11-30T08:16:45.886Z,9.87
2022-11-30T08:19:13.452Z,9.70
2022-11-30T08:21:41.044Z,9.67
2022-11-30T08:24:14.028Z,9.88
2022-11-30T08:26:41.941Z,9.83
2022-11-30T08:29:14.113Z,9.82
2022-11-30T08:31:41.745Z,9.64
2022-11-30T08:34:13.406Z,9.78
2022-11-30T08:36:47.274Z,9.41
2022-11-30T08:39:19.577Z,9.44
2022-11-30T08:41:47.534Z,9.41
2022-11-30T08:44:16.624Z,9.84
2022-11-30T08:46:52.411Z,9.87
2022-11-30T08:49:23.002Z,9.34
2022-11-30T08:57:34.406Z,9.86
2022-11-30T09:00:02.077Z,9.78
2022-11-30T09:02:29.580Z,9.78
2022-11-30T09:04:57.176Z,9.49
2022-11-30T09:07:24.648Z,9.13
2022-11-30T09:09:52.131Z,9.26
2022-11-30T09:12:19.731Z,8.98
2022-11-30T09:14:55.639Z,9.19
2022-11-30T09:17:25.151Z,9.55
2022-11-30T09:19:52.791Z,9.44
2022-11-30T09:22:20.325Z,9.31
2022-11-30T09:24:48.073Z,9.58
2022-11-30T09:27:15.772Z,9.79
2022-11-30T09:29:43.285Z,9.59
2022-11-30T09:32:10.834Z,9.77
2022-11-30T09:34:38.477Z,9.25
2022-11-30T09:37:06.272Z,9.70
2022-11-30T09:39:36.950Z,9.47
2022-11-30T09:42:25.808Z,9.19
2022-11-30T09:45:08.412Z,9.46
2022-11-30T09:47:59.944Z,9.25
2022-11-30T09:50:33.870Z,9.67
2022-11-30T09:53:29.704Z,9.05
2022-11-30T09:55:59.094Z,9.43
2022-11-30T09:58:55.464Z,9.28
2022-11-30T10:01:23.716Z,9.34
2022-11-30T10:03:51.436Z,9.56
2022-11-30T10:06:26.992Z,9.45
2022-11-30T10:09:26.146Z,9.74
2022-11-30T10:12:24.494Z,9.55
2022-11-30T10:15:32.204Z,9.44
2022-11-30T10:18:08.769Z,9.24
2022-11-30T10:20:59.065Z,9.06
2022-11-30T10:23:43.489Z,9.06
2022-11-30T10:26:16.598Z,9.01
2022-11-30T10:28:54.284Z,9.21
2022-11-30T10:31:39.291Z,9.09
2022-11-30T10:34:21.355Z,9.10
2022-11-30T10:36:55.753Z,9.39
2022-11-30T10:39:33.649Z,9.23
2022-11-30T10:42:13.132Z,8.94
2022-11-30T10:44:49.817Z,8.58
2022-11-30T10:47:24.123Z,8.70
2022-11-30T10:49:53.364Z,9.25
2022-11-30T10:52:31.125Z,8.80
2022-11-30T10:55:04.579Z,9.06
2022-11-30T10:57:33.970Z,8.73
2022-11-30T11:00:06.930Z,8.68
2022-11-30T11:02:46.010Z,8.75
2022-11-30T11:05:25.430Z,8.65
2022-11-30T11:08:06.345Z,8.42
2022-11-30T11:10:47.803Z,8.66
2022-11-30T11:13:42.644Z,9.19
2022-11-30T11:16:14.310Z,9.01
2022-11-30T11:18:57.506Z,9.17
2022-11-30T11:21:25.805Z,9.15
2022-11-30T11:23:58.492Z,8.71
2022-11-30T11:26:31.769Z,8.71
2022-11-30T11:28:59.903Z,8.90
2022-11-30T11:31:47.431Z,8.94
2022-11-30T11:34:34.780Z,8.72
2022-11-30T11:37:18.025Z,8.57
2022-11-30T11:40:16.215Z,8.64
2022-11-30T11:42:47.692Z,8.90
2022-11-30T11:45:26.066Z,8.70
2022-11-30T11:48:08.256Z,8.90
2022-11-30T11:53:54.313Z,9.70
2022-11-30T11:56:27.986Z,9.23
2022-11-30T11:59:13.046Z,8.94
2022-11-30T12:02:18.881Z,8.81
2022-11-30T12:04:53.044Z,9.02
2022-11-30T12:08:07.650Z,9.35
2022-11-30T12:10:53.029Z,9.12
2022-11-30T12:13:26.595Z,9.37
2022-11-30T12:16:12.332Z,9.22
2022-11-30T12:19:08.804Z,9.22
2022-11-30T12:22:15.718Z,9.10
2022-11-30T12:25:06.191Z,9.21
2022-11-30T12:27:55.407Z,9.30
2022-11-30T12:31:15.465Z,9.10
2022-11-30T12:34:17.343Z,9.16
2022-11-30T12:37:05.276Z,9.42
2022-11-30T12:39:44.407Z,9.40
2022-11-30T12:42:22.287Z,9.45
2022-11-30T12:45:28.757Z,9.11
2022-11-30T12:48:34.981Z,8.94
2022-11-30T12:51:17.551Z,9.01
2022-11-30T12:54:41.715Z,9.17
2022-11-30T12:57:35.209Z,9.26
2022-11-30T13:00:17.922Z,9.06
2022-11-30T13:03:16.695Z,8.86
2022-11-30T13:05:51.629Z,8.89
2022-11-30T13:08:34.444Z,8.72
2022-11-30T13:11:18.197Z,8.81
2022-11-30T13:13:57.415Z,8.64
2022-11-30T13:16:28.952Z,8.63
2022-11-30T13:19:38.096Z,8.66
2022-11-30T13:22:17.581Z,8.70
2022-11-30T13:25:07.442Z,8.74
2022-11-30T13:27:47.626Z,8.64
2022-11-30T13:30:21.364Z,8.66
2022-11-30T13:32:57.788Z,8.68
2022-11-30T13:35:29.177Z,8.70
2022-11-30T13:38:36.827Z,8.74
2022-11-30T13:41:10.476Z,8.65
2022-11-30T13:43:47.825Z,8.72
2022-11-30T13:46:23.845Z,8.74
2022-11-30T13:49:20.898Z,8.79
2022-11-30T13:52:07.073Z,8.84
2022-11-30T13:54:50.309Z,8.85
2022-11-30T13:57:25.301Z,8.85
2022-11-30T13:59:58.195Z,8.86
2022-11-30T14:05:37.875Z,9.20
2022-11-30T14:08:12.055Z,9.15
2022-11-30T14:10:46.495Z,8.97
2022-11-30T14:13:16.179Z,9.03
2022-11-30T14:15:43.688Z,9.17
2022-11-30T14:18:11.128Z,9.12
2022-11-30T14:20:48.830Z,9.17
2022-11-30T14:23:29.794Z,9.22
2022-11-30T14:26:11.510Z,9.10
2022-11-30T14:28:58.814Z,9.42
2022-11-30T14:31:31.039Z,9.14
2022-11-30T14:34:29.910Z,9.36
2022-11-30T14:37:04.193Z,9.42
2022-11-30T14:39:42.083Z,9.36
2022-11-30T14:42:28.513Z,9.07
2022-11-30T14:44:57.406Z,9.11
2022-11-30T14:47:32.138Z,9.07
2022-11-30T14:50:04.345Z,8.94
2022-11-30T14:52:59.132Z,8.97
2022-11-30T14:55:53.512Z,9.09
2022-11-30T14:58:51.767Z,8.95
2022-11-30T15:01:26.615Z,8.88
2022-11-30T15:04:00.835Z,8.79
2022-11-30T15:06:33.219Z,8.76
2022-11-30T15:09:05.859Z,8.87
2022-11-30T15:11:33.430Z,8.86
2022-11-30T15:14:11.579Z,8.76
2022-11-30T15:16:48.083Z,8.84
2022-11-30T15:19:37.478Z,8.83
2022-11-30T15:22:06.519Z,8.92
2022-11-30T15:24:34.084Z,8.98
2022-11-30T15:27:11.224Z,8.91
2022-11-30T15:29:45.702Z,8.85
2022-11-30T15:32:19.874Z,9.08
2022-11-30T15:34:56.752Z,9.07
2022-11-30T15:37:38.761Z,9.08
2022-11-30T15:40:09.149Z,9.13
2022-11-30T15:42:40.497Z,9.15
2022-11-30T15:45:30.187Z,9.11
2022-11-30T15:48:02.407Z,9.01
2022-11-30T15:50:29.953Z,9.07
2022-11-30T15:53:35.024Z,9.01
2022-11-30T15:56:08.137Z,9.01
2022-11-30T15:58:46.109Z,9.01
2022-11-30T16:01:26.004Z,8.89
2022-11-30T16:03:58.179Z,8.92
2022-11-30T16:06:27.856Z,8.94
2022-11-30T16:08:56.290Z,9.08
2022-11-30T16:11:23.901Z,9.08
2022-11-30T16:13:51.467Z,9.20
2022-11-30T16:16:28.493Z,9.11
2022-11-30T16:18:56.234Z,9.01
2022-11-30T16:21:23.847Z,8.95
2022-11-30T16:23:51.367Z,8.95
2022-11-30T16:26:49.592Z,8.96
2022-11-30T16:29:10.422Z,9.05
2022-11-30T16:31:38.816Z,9.00
2022-11-30T16:34:08.791Z,9.00
2022-11-30T16:36:39.021Z,9.02
2022-11-30T16:39:06.882Z,8.95
2022-11-30T16:41:36.213Z,8.98
2022-11-30T16:44:03.787Z,9.06
2022-11-30T16:46:31.863Z,9.01
2022-11-30T16:48:59.466Z,9.00
2022-11-30T16:51:35.117Z,9.00
2022-11-30T16:54:03.560Z,8.91
2022-11-30T16:56:32.542Z,8.89
2022-11-30T16:59:00.325Z,8.90
2022-11-30T17:01:48.643Z,8.86
2022-11-30T17:04:22.907Z,8.85
2022-11-30T17:06:53.651Z,8.87
2022-11-30T17:09:25.014Z,8.95
2022-11-30T17:11:54.151Z,8.93
2022-11-30T17:14:22.444Z,8.92
2022-11-30T17:16:50.118Z,8.85
2022-11-30T17:19:17.756Z,8.96
2022-11-30T17:21:45.934Z,8.93
2022-11-30T17:24:15.921Z,8.94
2022-11-30T17:26:43.766Z,8.95
2022-11-30T17:29:11.320Z,8.92
2022-11-30T17:31:38.995Z,8.96
2022-11-30T17:34:12.352Z,8.89
2022-11-30T17:36:39.988Z,8.98
2022-11-30T17:39:09.048Z,9.02
2022-11-30T17:41:56.665Z,9.07
2022-11-30T17:44:30.565Z,9.05
2022-11-30T17:46:58.759Z,8.98
2022-11-30T17:49:27.765Z,9.01
2022-11-30T17:52:19.869Z,9.49
2022-11-30T17:54:48.114Z,9.85
2022-11-30T17:57:16.431Z,9.81
2022-11-30T17:59:44.111Z,9.64
2022-11-30T18:02:14.302Z,9.62
2022-11-30T18:04:53.189Z,9.81
2022-11-30T18:07:25.505Z,9.75
2022-11-30T18:09:53.289Z,9.54
2022-11-30T18:12:22.287Z,9.65
2022-11-30T18:14:51.138Z,10.03
2022-11-30T18:17:18.873Z,10.42
2022-11-30T18:19:52.747Z,9.86
2022-11-30T18:22:20.848Z,9.72
2022-11-30T18:24:48.672Z,9.60
2022-11-30T18:27:17.817Z,9.37
2022-11-30T18:29:51.355Z,9.15
2022-11-30T18:32:23.730Z,9.29
2022-11-30T18:34:52.897Z,9.13
2022-11-30T18:37:20.599Z,8.84
2022-11-30T18:39:51.382Z,9.10
2022-11-30T18:42:20.671Z,8.74
2022-11-30T18:44:50.715Z,8.91
2022-11-30T18:47:20.970Z,8.54
2022-11-30T18:49:49.784Z,8.53
2022-11-30T18:52:22.344Z,8.55
2022-11-30T18:54:50.782Z,9.14
2022-11-30T18:57:22.824Z,9.33
2022-11-30T18:59:53.867Z,8.85
2022-11-30T19:02:22.720Z,9.03
2022-11-30T19:04:54.035Z,8.88
2022-11-30T19:07:22.977Z,8.84
2022-11-30T19:09:52.291Z,8.78
2022-11-30T19:12:24.400Z,8.43
2022-11-30T19:14:52.589Z,8.52
2022-11-30T19:17:23.750Z,8.44
2022-11-30T19:19:51.565Z,8.05
2022-11-30T19:22:22.682Z,8.29
2022-11-30T19:24:51.353Z,8.66
2022-11-30T19:27:22.240Z,8.48
2022-11-30T19:29:50.088Z,8.86
2022-11-30T19:32:17.951Z,8.80
2022-11-30T19:34:45.773Z,8.45
2022-11-30T19:37:15.325Z,8.55
2022-11-30T19:39:43.411Z,8.81
2022-11-30T19:42:11.570Z,8.73
2022-11-30T19:44:42.995Z,8.62
2022-11-30T19:47:13.506Z,8.46
2022-11-30T19:49:47.083Z,8.16
2022-11-30T19:52:16.571Z,8.45
2022-11-30T19:54:45.356Z,8.08
2022-11-30T19:57:13.415Z,8.07
2022-11-30T19:59:42.474Z,8.29
2022-11-30T20:02:12.499Z,8.46
2022-11-30T20:04:41.198Z,8.18
2022-11-30T20:07:08.981Z,8.06
2022-11-30T20:09:36.760Z,8.25
2022-11-30T20:12:05.348Z,7.84
2022-11-30T20:14:42.791Z,8.09
2022-11-30T20:17:13.025Z,8.35
2022-11-30T20:19:47.267Z,8.29
2022-11-30T20:22:18.452Z,8.34
2022-11-30T20:24:51.233Z,8.69
2022-11-30T20:27:24.011Z,8.66
2022-11-30T20:29:56.626Z,8.66
2022-11-30T20:32:24.650Z,8.15
2022-11-30T20:34:55.641Z,8.05
2022-11-30T20:37:23.513Z,7.84
2022-11-30T20:39:52.062Z,8.42
2022-11-30T20:42:21.973Z,8.25
2022-11-30T20:44:50.991Z,8.30
2022-11-30T20:47:18.744Z,8.42
2022-11-30T20:49:46.971Z,8.43
2022-11-30T20:52:15.071Z,8.64
2022-11-30T20:54:44.481Z,8.59
2022-11-30T20:57:13.843Z,8.50
2022-11-30T20:59:43.217Z,8.12
2022-11-30T21:02:11.613Z,7.98
2022-11-30T21:04:39.233Z,8.22
2022-11-30T21:07:06.990Z,8.02
2022-11-30T21:09:34.492Z,8.12
2022-11-30T21:12:01.988Z,8.47
2022-11-30T21:14:29.671Z,8.48
2022-11-30T21:16:57.175Z,8.30
2022-11-30T21:19:24.881Z,8.03
2022-11-30T21:21:52.423Z,7.79
2022-11-30T21:24:19.962Z,7.65
2022-11-30T21:26:47.536Z,7.68
2022-11-30T21:29:19.173Z,7.68
2022-11-30T21:31:47.181Z,7.49
2022-11-30T21:34:15.168Z,7.36
2022-11-30T21:36:42.904Z,7.45
2022-11-30T21:39:14.087Z,7.41
2022-11-30T21:41:42.419Z,7.67
2022-11-30T21:44:14.971Z,8.08
2022-11-30T21:46:45.705Z,7.96
2022-11-30T21:49:15.474Z,7.85
2022-11-30T21:51:44.053Z,7.75
2022-11-30T21:54:13.653Z,7.75
2022-11-30T21:56:43.814Z,7.89
2022-11-30T21:59:14.690Z,8.04
2022-11-30T22:01:44.368Z,7.86
2022-11-30T22:04:14.344Z,7.95
2022-11-30T22:06:43.796Z,7.81
2022-11-30T22:09:15.667Z,7.78
2022-11-30T22:11:45.923Z,7.98
2022-11-30T22:14:16.665Z,8.47
2022-11-30T22:16:44.951Z,8.72
2022-11-30T22:19:12.509Z,8.84
2022-11-30T22:21:42.955Z,8.62
2022-11-30T22:24:14.146Z,8.89
2022-11-30T22:26:46.237Z,8.97
2022-11-30T22:29:18.988Z,8.46
2022-11-30T22:31:49.447Z,7.84
2022-11-30T22:34:17.287Z,7.59
2022-11-30T22:36:46.681Z,7.53
2022-11-30T22:39:18.980Z,7.91
2022-11-30T22:41:54.689Z,7.96
2022-11-30T22:44:23.382Z,7.99
2022-11-30T22:46:51.011Z,7.81
2022-11-30T22:49:21.594Z,7.91
2022-11-30T22:51:50.570Z,7.97
2022-11-30T22:54:18.673Z,7.73
2022-11-30T22:56:47.174Z,7.67
2022-11-30T22:59:16.024Z,7.89
2022-11-30T23:01:46.932Z,8.11
2022-11-30T23:04:20.803Z,8.15
2022-11-30T23:06:50.115Z,8.57
2022-11-30T23:09:23.069Z,8.70
2022-11-30T23:11:52.184Z,8.36
2022-11-30T23:14:19.848Z,8.52
2022-11-30T23:16:47.666Z,8.33
2022-11-30T23:19:15.812Z,8.71
2022-11-30T23:21:45.516Z,8.47
2022-11-30T23:24:20.809Z,8.88
2022-11-30T23:26:49.780Z,8.43
2022-11-30T23:29:18.616Z,7.86
2022-11-30T23:31:47.292Z,8.05
2022-11-30T23:34:19.383Z,8.01
2022-11-30T23:36:47.612Z,8.28
2022-11-30T23:39:18.202Z,8.34
2022-11-30T23:41:46.104Z,8.03
2022-11-30T23:44:13.806Z,7.87
2022-11-30T23:46:42.812Z,8.16
2022-11-30T23:49:14.134Z,7.97
2022-11-30T23:51:42.536Z,8.06
2022-11-30T23:54:10.052Z,8.10
2022-11-30T23:56:37.502Z,8.06
2022-11-30T23:59:06.039Z,8.20
